sensor_id;sensor_type;location;lat;lon;timestamp;pressure;altitude;pressure_sealevel;temperature;humidity
6216;BME280;3141;49.234;9.326;2023-07-20T00:00:10;99436.75;;;22.89;49.23
6216;BME280;3141;49.234;9.326;2023-07-20T00:00:56;99437.59;;;22.89;49.49
6216;BME280;3141;49.234;9.326;2023-07-20T00:01:38;99436.50;;;22.90;49.24
6216;BME280;3141;49.234;9.326;2023-07-20T00:02:20;99434.06;;;22.89;49.02
6216;BME280;3141;49.234;9.326;2023-07-20T00:03:13;99434.56;;;22.86;48.97
6216;BME280;3141;49.234;9.326;2023-07-20T00:03:58;99436.56;;;22.79;49.13
6216;BME280;3141;49.234;9.326;2023-07-20T00:04:41;99436.56;;;22.79;49.13
6216;BME280;3141;49.234;9.326;2023-07-20T00:05:23;99433.00;;;22.90;48.90
6216;BME280;3141;49.234;9.326;2023-07-20T00:06:06;99434.06;;;22.89;49.11
6216;BME280;3141;49.234;9.326;2023-07-20T00:06:49;99440.88;;;22.92;49.14
6216;BME280;3141;49.234;9.326;2023-07-20T00:07:31;99438.53;;;22.83;49.22
6216;BME280;3141;49.234;9.326;2023-07-20T00:08:14;99435.84;;;22.83;49.09
6216;BME280;3141;49.234;9.326;2023-07-20T00:08:56;99437.28;;;22.74;49.22
6216;BME280;3141;49.234;9.326;2023-07-20T00:09:38;99437.16;;;22.81;49.55
6216;BME280;3141;49.234;9.326;2023-07-20T00:10:21;99436.81;;;22.77;49.55
6216;BME280;3141;49.234;9.326;2023-07-20T00:11:03;99437.41;;;22.79;49.36
6216;BME280;3141;49.234;9.326;2023-07-20T00:11:49;99438.25;;;22.68;49.42
6216;BME280;3141;49.234;9.326;2023-07-20T00:12:35;99435.78;;;22.67;49.38
6216;BME280;3141;49.234;9.326;2023-07-20T00:13:17;99440.94;;;22.68;49.40
6216;BME280;3141;49.234;9.326;2023-07-20T00:14:01;99439.41;;;22.72;49.29
6216;BME280;3141;49.234;9.326;2023-07-20T00:14:43;99440.31;;;22.78;49.23
6216;BME280;3141;49.234;9.326;2023-07-20T00:15:25;99431.69;;;22.64;49.60
6216;BME280;3141;49.234;9.326;2023-07-20T00:16:08;99436.03;;;22.65;49.78
6216;BME280;3141;49.234;9.326;2023-07-20T00:16:50;99445.16;;;22.64;49.53
6216;BME280;3141;49.234;9.326;2023-07-20T00:17:37;99443.19;;;22.60;49.94
6216;BME280;3141;49.234;9.326;2023-07-20T00:18:22;99445.31;;;22.58;49.71
6216;BME280;3141;49.234;9.326;2023-07-20T00:19:04;99436.75;;;22.49;49.82
6216;BME280;3141;49.234;9.326;2023-07-20T00:19:49;99439.09;;;22.57;49.76
6216;BME280;3141;49.234;9.326;2023-07-20T00:20:31;99437.81;;;22.60;49.77
6216;BME280;3141;49.234;9.326;2023-07-20T00:21:13;99436.03;;;22.65;49.59
6216;BME280;3141;49.234;9.326;2023-07-20T00:21:56;99436.97;;;22.59;49.88
6216;BME280;3141;49.234;9.326;2023-07-20T00:22:38;99438.84;;;22.47;49.75
6216;BME280;3141;49.234;9.326;2023-07-20T00:23:20;99438.38;;;22.50;49.94
6216;BME280;3141;49.234;9.326;2023-07-20T00:24:04;99442.03;;;22.44;49.75
6216;BME280;3141;49.234;9.326;2023-07-20T00:24:47;99446.00;;;22.42;50.09
6216;BME280;3141;49.234;9.326;2023-07-20T00:25:29;99441.47;;;22.31;50.20
6216;BME280;3141;49.234;9.326;2023-07-20T00:26:11;99435.25;;;22.30;50.21
6216;BME280;3141;49.234;9.326;2023-07-20T00:26:54;99434.22;;;22.31;50.26
6216;BME280;3141;49.234;9.326;2023-07-20T00:27:36;99432.56;;;22.30;50.53
6216;BME280;3141;49.234;9.326;2023-07-20T00:28:18;99438.53;;;22.32;50.38
6216;BME280;3141;49.234;9.326;2023-07-20T00:29:01;99442.28;;;22.43;50.12
6216;BME280;3141;49.234;9.326;2023-07-20T00:29:43;99449.31;;;22.32;50.36
6216;BME280;3141;49.234;9.326;2023-07-20T00:30:26;99447.56;;;22.26;50.19
6216;BME280;3141;49.234;9.326;2023-07-20T00:31:08;99442.53;;;22.18;50.62
6216;BME280;3141;49.234;9.326;2023-07-20T00:31:50;99443.13;;;22.20;50.66
6216;BME280;3141;49.234;9.326;2023-07-20T00:32:32;99439.84;;;22.18;50.73
6216;BME280;3141;49.234;9.326;2023-07-20T00:33:17;99439.59;;;22.20;50.61
6216;BME280;3141;49.234;9.326;2023-07-20T00:34:00;99443.03;;;22.15;50.47
6216;BME280;3141;49.234;9.326;2023-07-20T00:34:42;99452.72;;;22.16;50.85
6216;BME280;3141;49.234;9.326;2023-07-20T00:35:24;99438.34;;;22.22;50.66
6216;BME280;3141;49.234;9.326;2023-07-20T00:36:07;99439.72;;;22.25;50.53
6216;BME280;3141;49.234;9.326;2023-07-20T00:36:49;99439.97;;;22.23;50.60
6216;BME280;3141;49.234;9.326;2023-07-20T00:37:31;99448.63;;;22.25;50.40
6216;BME280;3141;49.234;9.326;2023-07-20T00:38:14;99448.72;;;22.30;50.38
6216;BME280;3141;49.234;9.326;2023-07-20T00:38:56;99432.47;;;22.25;50.79
6216;BME280;3141;49.234;9.326;2023-07-20T00:39:38;99443.97;;;22.21;50.45
6216;BME280;3141;49.234;9.326;2023-07-20T00:40:21;99442.88;;;22.22;50.55
6216;BME280;3141;49.234;9.326;2023-07-20T00:41:03;99447.69;;;22.20;50.93
6216;BME280;3141;49.234;9.326;2023-07-20T00:41:45;99449.00;;;22.17;51.06
6216;BME280;3141;49.234;9.326;2023-07-20T00:42:28;99451.22;;;22.20;50.61
6216;BME280;3141;49.234;9.326;2023-07-20T00:43:10;99445.09;;;22.25;50.79
6216;BME280;3141;49.234;9.326;2023-07-20T00:43:52;99445.34;;;22.23;50.46
6216;BME280;3141;49.234;9.326;2023-07-20T00:44:35;99441.97;;;22.28;50.56
6216;BME280;3141;49.234;9.326;2023-07-20T00:45:17;99459.63;;;22.24;50.82
6216;BME280;3141;49.234;9.326;2023-07-20T00:46:00;99444.66;;;22.28;50.78
6216;BME280;3141;49.234;9.326;2023-07-20T00:46:42;99444.06;;;22.14;51.15
6216;BME280;3141;49.234;9.326;2023-07-20T00:47:27;99451.91;;;22.04;51.30
6216;BME280;3141;49.234;9.326;2023-07-20T00:48:09;99456.72;;;22.02;51.49
6216;BME280;3141;49.234;9.326;2023-07-20T00:48:53;99453.22;;;22.02;51.53
6216;BME280;3141;49.234;9.326;2023-07-20T00:49:36;99457.53;;;22.14;51.40
6216;BME280;3141;49.234;9.326;2023-07-20T00:50:19;99459.41;;;22.14;51.41
6216;BME280;3141;49.234;9.326;2023-07-20T00:51:01;99454.00;;;22.02;51.49
6216;BME280;3141;49.234;9.326;2023-07-20T00:51:44;99451.69;;;22.06;51.89
6216;BME280;3141;49.234;9.326;2023-07-20T00:52:27;99446.41;;;22.11;51.56
6216;BME280;3141;49.234;9.326;2023-07-20T00:53:10;99449.91;;;22.11;51.73
6216;BME280;3141;49.234;9.326;2023-07-20T00:53:53;99456.81;;;22.07;51.91
6216;BME280;3141;49.234;9.326;2023-07-20T00:54:36;99448.06;;;22.00;51.97
6216;BME280;3141;49.234;9.326;2023-07-20T00:55:19;99453.22;;;22.02;52.13
6216;BME280;3141;49.234;9.326;2023-07-20T00:56:02;99459.63;;;22.01;52.02
6216;BME280;3141;49.234;9.326;2023-07-20T00:56:45;99454.50;;;21.99;52.33
6216;BME280;3141;49.234;9.326;2023-07-20T00:57:28;99456.84;;;21.96;52.80
6216;BME280;3141;49.234;9.326;2023-07-20T00:58:11;99453.22;;;21.78;52.81
6216;BME280;3141;49.234;9.326;2023-07-20T00:58:53;99455.53;;;21.87;52.66
6216;BME280;3141;49.234;9.326;2023-07-20T00:59:35;99455.44;;;21.93;52.58
6216;BME280;3141;49.234;9.326;2023-07-20T01:00:18;99452.06;;;21.86;52.54
6216;BME280;3141;49.234;9.326;2023-07-20T01:01:00;99449.47;;;21.91;52.60
6216;BME280;3141;49.234;9.326;2023-07-20T01:01:43;99452.50;;;21.95;52.76
6216;BME280;3141;49.234;9.326;2023-07-20T01:02:25;99454.38;;;21.94;52.49
6216;BME280;3141;49.234;9.326;2023-07-20T01:03:07;99448.28;;;21.87;52.90
6216;BME280;3141;49.234;9.326;2023-07-20T01:03:50;99451.06;;;21.69;53.51
6216;BME280;3141;49.234;9.326;2023-07-20T01:04:33;99454.56;;;21.69;53.45
6216;BME280;3141;49.234;9.326;2023-07-20T01:05:16;99446.59;;;21.74;53.25
6216;BME280;3141;49.234;9.326;2023-07-20T01:06:15;99457.59;;;21.73;53.68
6216;BME280;3141;49.234;9.326;2023-07-20T01:07:31;99452.38;;;21.78;53.47
6216;BME280;3141;49.234;9.326;2023-07-20T01:08:18;99456.56;;;21.74;54.31
6216;BME280;3141;49.234;9.326;2023-07-20T01:09:13;99459.84;;;21.76;54.09
6216;BME280;3141;49.234;9.326;2023-07-20T01:10:16;99461.84;;;21.69;54.16
6216;BME280;3141;49.234;9.326;2023-07-20T01:11:08;99461.72;;;21.64;54.59
6216;BME280;3141;49.234;9.326;2023-07-20T01:12:54;99458.50;;;21.55;54.96
6216;BME280;3141;49.234;9.326;2023-07-20T01:13:17;99460.88;;;21.63;54.35
6216;BME280;3141;49.234;9.326;2023-07-20T01:14:01;99457.25;;;21.58;54.34
6216;BME280;3141;49.234;9.326;2023-07-20T01:14:44;99454.44;;;21.53;54.53
6216;BME280;3141;49.234;9.326;2023-07-20T01:15:27;99457.84;;;21.60;54.12
6216;BME280;3141;49.234;9.326;2023-07-20T01:16:09;99456.06;;;21.54;54.06
6216;BME280;3141;49.234;9.326;2023-07-20T01:16:52;99451.97;;;21.51;54.06
6216;BME280;3141;49.234;9.326;2023-07-20T01:17:35;99454.78;;;21.45;54.11
6216;BME280;3141;49.234;9.326;2023-07-20T01:18:17;99462.25;;;21.43;54.47
6216;BME280;3141;49.234;9.326;2023-07-20T01:19:00;99457.84;;;21.48;54.37
6216;BME280;3141;49.234;9.326;2023-07-20T01:19:42;99449.03;;;21.41;54.43
6216;BME280;3141;49.234;9.326;2023-07-20T01:20:25;99456.75;;;21.38;54.74
6216;BME280;3141;49.234;9.326;2023-07-20T01:21:10;99458.03;;;21.35;54.55
6216;BME280;3141;49.234;9.326;2023-07-20T01:21:57;99460.72;;;21.35;54.45
6216;BME280;3141;49.234;9.326;2023-07-20T01:24:29;99458.97;;;21.41;54.71
6216;BME280;3141;49.234;9.326;2023-07-20T01:25:26;99461.91;;;21.39;55.20
6216;BME280;3141;49.234;9.326;2023-07-20T01:26:39;99453.81;;;21.39;54.79
6216;BME280;3141;49.234;9.326;2023-07-20T01:27:52;99456.66;;;21.44;54.45
6216;BME280;3141;49.234;9.326;2023-07-20T01:29:50;99460.94;;;21.34;54.90
6216;BME280;3141;49.234;9.326;2023-07-20T01:31:32;99460.59;;;21.42;54.43
6216;BME280;3141;49.234;9.326;2023-07-20T01:32:17;99458.97;;;21.41;54.59
6216;BME280;3141;49.234;9.326;2023-07-20T01:33:00;99454.63;;;21.40;54.83
6216;BME280;3141;49.234;9.326;2023-07-20T01:33:44;99456.53;;;21.39;54.70
6216;BME280;3141;49.234;9.326;2023-07-20T01:34:29;99456.03;;;21.42;55.26
6216;BME280;3141;49.234;9.326;2023-07-20T01:35:13;99456.81;;;21.31;54.84
6216;BME280;3141;49.234;9.326;2023-07-20T01:35:59;99451.44;;;21.31;54.80
6216;BME280;3141;49.234;9.326;2023-07-20T01:36:43;99459.50;;;21.31;55.00
6216;BME280;3141;49.234;9.326;2023-07-20T01:37:27;99453.69;;;21.34;54.94
6216;BME280;3141;49.234;9.326;2023-07-20T01:38:12;99456.75;;;21.38;54.77
6216;BME280;3141;49.234;9.326;2023-07-20T01:38:56;99463.75;;;21.39;54.76
6216;BME280;3141;49.234;9.326;2023-07-20T01:39:39;99458.50;;;21.44;54.46
6216;BME280;3141;49.234;9.326;2023-07-20T01:40:22;99464.72;;;21.44;55.09
6216;BME280;3141;49.234;9.326;2023-07-20T01:41:08;99463.28;;;21.42;55.56
6216;BME280;3141;49.234;9.326;2023-07-20T01:41:50;99460.59;;;21.42;55.10
6216;BME280;3141;49.234;9.326;2023-07-20T01:42:32;99464.34;;;21.41;55.02
6216;BME280;3141;49.234;9.326;2023-07-20T01:43:15;99461.91;;;21.39;55.17
6216;BME280;3141;49.234;9.326;2023-07-20T01:43:58;99462.91;;;21.27;55.26
6216;BME280;3141;49.234;9.326;2023-07-20T01:44:42;99460.81;;;21.29;55.41
6216;BME280;3141;49.234;9.326;2023-07-20T01:45:24;99466.06;;;21.24;55.35
6216;BME280;3141;49.234;9.326;2023-07-20T01:46:07;99457.88;;;21.19;55.50
6216;BME280;3141;49.234;9.326;2023-07-20T01:46:49;99462.19;;;21.20;55.45
6216;BME280;3141;49.234;9.326;2023-07-20T01:47:31;99465.00;;;21.25;55.61
6216;BME280;3141;49.234;9.326;2023-07-20T01:48:14;99461.34;;;21.19;55.52
6216;BME280;3141;49.234;9.326;2023-07-20T01:48:57;99463.25;;;21.19;55.79
6216;BME280;3141;49.234;9.326;2023-07-20T01:49:39;99462.66;;;21.17;55.94
6216;BME280;3141;49.234;9.326;2023-07-20T01:50:22;99465.06;;;21.07;56.21
6216;BME280;3141;49.234;9.326;2023-07-20T01:51:04;99465.06;;;21.07;56.09
6216;BME280;3141;49.234;9.326;2023-07-20T01:51:46;99464.72;;;21.03;56.16
6216;BME280;3141;49.234;9.326;2023-07-20T01:52:29;99464.59;;;21.10;55.77
6216;BME280;3141;49.234;9.326;2023-07-20T01:53:11;99473.16;;;21.18;55.97
6216;BME280;3141;49.234;9.326;2023-07-20T01:53:54;99470.25;;;21.20;56.40
6216;BME280;3141;49.234;9.326;2023-07-20T01:54:36;99470.13;;;21.15;56.18
6216;BME280;3141;49.234;9.326;2023-07-20T01:55:19;99468.84;;;21.17;56.13
6216;BME280;3141;49.234;9.326;2023-07-20T01:56:01;99473.88;;;21.14;56.01
6216;BME280;3141;49.234;9.326;2023-07-20T01:56:44;99469.97;;;21.10;56.25
6216;BME280;3141;49.234;9.326;2023-07-20T01:57:26;99469.75;;;21.11;56.41
6216;BME280;3141;49.234;9.326;2023-07-20T01:58:08;99467.44;;;21.15;56.41
6216;BME280;3141;49.234;9.326;2023-07-20T01:58:51;99465.88;;;21.07;56.58
6216;BME280;3141;49.234;9.326;2023-07-20T01:59:33;99470.22;;;21.08;56.41
6216;BME280;3141;49.234;9.326;2023-07-20T02:00:16;99467.75;;;21.07;56.66
6216;BME280;3141;49.234;9.326;2023-07-20T02:00:58;99467.28;;;21.10;56.78
6216;BME280;3141;49.234;9.326;2023-07-20T02:01:40;99469.53;;;21.13;57.20
6216;BME280;3141;49.234;9.326;2023-07-20T02:02:26;99467.06;;;21.11;57.26
6216;BME280;3141;49.234;9.326;2023-07-20T02:03:09;99468.94;;;21.11;57.12
6216;BME280;3141;49.234;9.326;2023-07-20T02:03:51;99468.19;;;21.04;57.34
6216;BME280;3141;49.234;9.326;2023-07-20T02:04:33;99471.13;;;21.02;57.54
6216;BME280;3141;49.234;9.326;2023-07-20T02:05:16;99470.88;;;21.04;57.96
6216;BME280;3141;49.234;9.326;2023-07-20T02:05:58;99469.47;;;21.01;58.02
6216;BME280;3141;49.234;9.326;2023-07-20T02:06:41;99474.03;;;21.01;57.71
6216;BME280;3141;49.234;9.326;2023-07-20T02:07:23;99467.63;;;21.02;57.83
6216;BME280;3141;49.234;9.326;2023-07-20T02:08:05;99469.72;;;21.00;57.74
6216;BME280;3141;49.234;9.326;2023-07-20T02:08:48;99472.84;;;20.97;57.88
6216;BME280;3141;49.234;9.326;2023-07-20T02:09:30;99468.06;;;20.99;58.26
6216;BME280;3141;49.234;9.326;2023-07-20T02:10:12;99472.00;;;20.96;58.47
6216;BME280;3141;49.234;9.326;2023-07-20T02:10:55;99468.81;;;20.88;58.85
6216;BME280;3141;49.234;9.326;2023-07-20T02:11:37;99463.44;;;20.88;58.74
6216;BME280;3141;49.234;9.326;2023-07-20T02:12:19;99464.59;;;20.92;59.02
6216;BME280;3141;49.234;9.326;2023-07-20T02:13:02;99465.16;;;20.82;59.36
6216;BME280;3141;49.234;9.326;2023-07-20T02:13:44;99469.09;;;20.80;59.41
6216;BME280;3141;49.234;9.326;2023-07-20T02:14:26;99459.41;;;20.79;59.09
6216;BME280;3141;49.234;9.326;2023-07-20T02:15:09;99469.06;;;20.68;59.83
6216;BME280;3141;49.234;9.326;2023-07-20T02:15:51;99466.59;;;20.66;60.33
6216;BME280;3141;49.234;9.326;2023-07-20T02:16:34;99466.22;;;20.63;60.36
6216;BME280;3141;49.234;9.326;2023-07-20T02:17:16;99464.00;;;20.60;60.94
6216;BME280;3141;49.234;9.326;2023-07-20T02:17:59;99465.03;;;20.59;61.02
6216;BME280;3141;49.234;9.326;2023-07-20T02:18:41;99466.31;;;20.56;60.62
6216;BME280;3141;49.234;9.326;2023-07-20T02:19:25;99463.50;;;20.51;60.79
6216;BME280;3141;49.234;9.326;2023-07-20T02:20:09;99474.59;;;20.55;61.15
6216;BME280;3141;49.234;9.326;2023-07-20T02:20:54;99464.09;;;20.53;60.89
6216;BME280;3141;49.234;9.326;2023-07-20T02:21:36;99462.66;;;20.51;60.99
6216;BME280;3141;49.234;9.326;2023-07-20T02:22:19;99460.66;;;20.46;60.87
6216;BME280;3141;49.234;9.326;2023-07-20T02:23:01;99462.66;;;20.51;60.74
6216;BME280;3141;49.234;9.326;2023-07-20T02:23:43;99456.91;;;20.47;60.80
6216;BME280;3141;49.234;9.326;2023-07-20T02:24:26;99455.72;;;20.43;61.37
6216;BME280;3141;49.234;9.326;2023-07-20T02:25:08;99461.53;;;20.40;61.37
6216;BME280;3141;49.234;9.326;2023-07-20T02:25:51;99458.09;;;20.33;61.36
6216;BME280;3141;49.234;9.326;2023-07-20T02:26:33;99464.31;;;20.34;61.14
6216;BME280;3141;49.234;9.326;2023-07-20T02:27:16;99470.28;;;20.36;61.45
6216;BME280;3141;49.234;9.326;2023-07-20T02:27:58;99464.31;;;20.34;61.26
6216;BME280;3141;49.234;9.326;2023-07-20T02:28:40;99462.88;;;20.31;61.93
6216;BME280;3141;49.234;9.326;2023-07-20T02:29:23;99457.66;;;20.36;61.39
6216;BME280;3141;49.234;9.326;2023-07-20T02:30:06;99460.19;;;20.31;62.12
6216;BME280;3141;49.234;9.326;2023-07-20T02:30:48;99471.31;;;20.35;61.89
6216;BME280;3141;49.234;9.326;2023-07-20T02:31:31;99463.94;;;20.30;62.07
6216;BME280;3141;49.234;9.326;2023-07-20T02:32:13;99465.03;;;20.23;62.29
6216;BME280;3141;49.234;9.326;2023-07-20T02:32:56;99468.78;;;20.22;62.51
6216;BME280;3141;49.234;9.326;2023-07-20T02:33:40;99467.06;;;20.27;61.79
6216;BME280;3141;49.234;9.326;2023-07-20T02:34:22;99459.44;;;20.24;62.23
6216;BME280;3141;49.234;9.326;2023-07-20T02:35:05;99470.63;;;20.21;62.42
6216;BME280;3141;49.234;9.326;2023-07-20T02:35:48;99461.38;;;20.17;62.58
6216;BME280;3141;49.234;9.326;2023-07-20T02:36:31;99464.06;;;20.17;62.27
6216;BME280;3141;49.234;9.326;2023-07-20T02:37:16;99466.34;;;20.14;62.18
6216;BME280;3141;49.234;9.326;2023-07-20T02:37:58;99465.53;;;20.13;62.48
6216;BME280;3141;49.234;9.326;2023-07-20T02:38:41;99462.00;;;20.13;62.22
6216;BME280;3141;49.234;9.326;2023-07-20T02:39:23;99470.97;;;20.07;62.16
6216;BME280;3141;49.234;9.326;2023-07-20T02:40:06;99470.53;;;20.10;62.08
6216;BME280;3141;49.234;9.326;2023-07-20T02:40:49;99465.97;;;20.10;62.08
6216;BME280;3141;49.234;9.326;2023-07-20T02:41:33;99466.63;;;20.06;62.29
6216;BME280;3141;49.234;9.326;2023-07-20T02:42:15;99466.84;;;20.04;62.33
6216;BME280;3141;49.234;9.326;2023-07-20T02:42:57;99472.81;;;20.06;62.68
6216;BME280;3141;49.234;9.326;2023-07-20T02:43:40;99469.31;;;20.06;62.75
6216;BME280;3141;49.234;9.326;2023-07-20T02:44:22;99477.50;;;20.11;62.67
6216;BME280;3141;49.234;9.326;2023-07-20T02:45:05;99480.50;;;20.03;63.09
6216;BME280;3141;49.234;9.326;2023-07-20T02:45:48;99473.84;;;20.05;62.82
6216;BME280;3141;49.234;9.326;2023-07-20T02:46:32;99472.59;;;20.08;62.77
6216;BME280;3141;49.234;9.326;2023-07-20T02:47:14;99474.13;;;19.97;63.22
6216;BME280;3141;49.234;9.326;2023-07-20T02:47:56;99474.00;;;19.92;63.15
6216;BME280;3141;49.234;9.326;2023-07-20T02:48:39;99474.44;;;19.89;63.14
6216;BME280;3141;49.234;9.326;2023-07-20T02:49:21;99471.97;;;19.88;63.51
6216;BME280;3141;49.234;9.326;2023-07-20T02:50:07;99466.59;;;19.88;63.90
6216;BME280;3141;49.234;9.326;2023-07-20T02:50:50;99474.88;;;19.86;63.50
6216;BME280;3141;49.234;9.326;2023-07-20T02:51:32;99468.69;;;19.86;63.43
6216;BME280;3141;49.234;9.326;2023-07-20T02:52:14;99471.75;;;19.89;62.96
6216;BME280;3141;49.234;9.326;2023-07-20T02:52:57;99473.59;;;19.89;62.79
6216;BME280;3141;49.234;9.326;2023-07-20T02:53:39;99473.22;;;19.85;62.95
6216;BME280;3141;49.234;9.326;2023-07-20T02:54:21;99477.19;;;19.83;62.69
6216;BME280;3141;49.234;9.326;2023-07-20T02:55:04;99478.81;;;19.84;63.23
6216;BME280;3141;49.234;9.326;2023-07-20T02:55:46;99479.31;;;19.74;63.02
6216;BME280;3141;49.234;9.326;2023-07-20T02:56:29;99481.88;;;19.87;62.41
6216;BME280;3141;49.234;9.326;2023-07-20T02:57:12;99482.25;;;19.91;62.60
6216;BME280;3141;49.234;9.326;2023-07-20T02:57:54;99480.78;;;19.95;62.35
6216;BME280;3141;49.234;9.326;2023-07-20T02:58:41;99488.47;;;19.91;62.49
6216;BME280;3141;49.234;9.326;2023-07-20T02:59:25;99482.25;;;19.91;62.59
6216;BME280;3141;49.234;9.326;2023-07-20T03:00:08;99485.31;;;19.94;62.10
6216;BME280;3141;49.234;9.326;2023-07-20T03:00:51;99488.84;;;19.95;61.91
6216;BME280;3141;49.234;9.326;2023-07-20T03:01:33;99479.34;;;19.92;62.08
6216;BME280;3141;49.234;9.326;2023-07-20T03:02:15;99481.44;;;19.90;62.20
6216;BME280;3141;49.234;9.326;2023-07-20T03:02:58;99489.47;;;19.90;62.16
6216;BME280;3141;49.234;9.326;2023-07-20T03:03:41;99490.16;;;19.86;62.10
6216;BME280;3141;49.234;9.326;2023-07-20T03:04:28;99491.34;;;19.90;62.32
6216;BME280;3141;49.234;9.326;2023-07-20T03:05:10;99491.34;;;19.90;61.72
6216;BME280;3141;49.234;9.326;2023-07-20T03:05:53;99490.97;;;19.86;61.87
6216;BME280;3141;49.234;9.326;2023-07-20T03:06:38;99487.41;;;19.92;61.71
6216;BME280;3141;49.234;9.326;2023-07-20T03:07:20;99486.31;;;20.00;61.24
6216;BME280;3141;49.234;9.326;2023-07-20T03:08:02;99494.84;;;19.90;61.36
6216;BME280;3141;49.234;9.326;2023-07-20T03:08:45;99489.63;;;19.95;60.94
6216;BME280;3141;49.234;9.326;2023-07-20T03:09:29;99490.25;;;19.97;60.95
6216;BME280;3141;49.234;9.326;2023-07-20T03:10:11;99492.94;;;19.97;61.59
6216;BME280;3141;49.234;9.326;2023-07-20T03:10:54;99489.22;;;19.98;61.47
6216;BME280;3141;49.234;9.326;2023-07-20T03:11:36;99488.53;;;20.03;61.30
6216;BME280;3141;49.234;9.326;2023-07-20T03:12:19;99490.25;;;19.97;61.64
6216;BME280;3141;49.234;9.326;2023-07-20T03:13:01;99502.44;;;19.93;61.99
6216;BME280;3141;49.234;9.326;2023-07-20T03:13:44;99493.75;;;19.98;61.81
6216;BME280;3141;49.234;9.326;2023-07-20T03:14:26;99491.91;;;19.98;61.71
6216;BME280;3141;49.234;9.326;2023-07-20T03:15:09;99492.31;;;19.95;62.28
6216;BME280;3141;49.234;9.326;2023-07-20T03:15:52;99484.72;;;19.92;62.37
6216;BME280;3141;49.234;9.326;2023-07-20T03:16:35;99495.06;;;19.89;62.49
6216;BME280;3141;49.234;9.326;2023-07-20T03:17:17;99500.44;;;19.89;62.77
6216;BME280;3141;49.234;9.326;2023-07-20T03:17:59;99495.50;;;19.86;62.77
6216;BME280;3141;49.234;9.326;2023-07-20T03:18:42;99500.06;;;19.85;62.40
6216;BME280;3141;49.234;9.326;2023-07-20T03:19:24;99494.31;;;19.82;62.71
6216;BME280;3141;49.234;9.326;2023-07-20T03:20:07;99490.78;;;19.81;63.10
6216;BME280;3141;49.234;9.326;2023-07-20T03:20:52;99496.59;;;19.78;63.09
6216;BME280;3141;49.234;9.326;2023-07-20T03:21:34;99492.28;;;19.77;63.27
6216;BME280;3141;49.234;9.326;2023-07-20T03:22:16;99496.59;;;19.78;62.79
6216;BME280;3141;49.234;9.326;2023-07-20T03:22:59;99496.22;;;19.75;62.94
6216;BME280;3141;49.234;9.326;2023-07-20T03:23:42;99496.44;;;19.73;63.19
6216;BME280;3141;49.234;9.326;2023-07-20T03:24:24;99496.81;;;19.77;63.00
6216;BME280;3141;49.234;9.326;2023-07-20T03:25:07;99498.97;;;19.68;63.45
6216;BME280;3141;49.234;9.326;2023-07-20T03:25:50;99503.09;;;19.64;64.01
6216;BME280;3141;49.234;9.326;2023-07-20T03:26:32;99503.78;;;19.60;64.04
6216;BME280;3141;49.234;9.326;2023-07-20T03:27:14;99501.53;;;19.57;64.22
6216;BME280;3141;49.234;9.326;2023-07-20T03:27:57;99505.63;;;19.59;63.95
6216;BME280;3141;49.234;9.326;2023-07-20T03:28:39;99506.91;;;19.57;64.15
6216;BME280;3141;49.234;9.326;2023-07-20T03:29:21;99507.91;;;19.55;63.98
6216;BME280;3141;49.234;9.326;2023-07-20T03:30:04;99502.78;;;19.54;63.86
6216;BME280;3141;49.234;9.326;2023-07-20T03:30:55;99502.78;;;19.54;63.80
6216;BME280;3141;49.234;9.326;2023-07-20T03:31:37;99505.69;;;19.52;63.50
6216;BME280;3141;49.234;9.326;2023-07-20T03:32:20;99507.53;;;19.52;63.97
6216;BME280;3141;49.234;9.326;2023-07-20T03:33:02;99501.94;;;19.53;63.72
6216;BME280;3141;49.234;9.326;2023-07-20T03:33:45;99504.84;;;19.52;64.07
6216;BME280;3141;49.234;9.326;2023-07-20T03:34:27;99496.84;;;19.45;64.32
6216;BME280;3141;49.234;9.326;2023-07-20T03:35:09;99505.34;;;19.42;64.64
6216;BME280;3141;49.234;9.326;2023-07-20T03:35:52;99514.78;;;19.45;64.19
6216;BME280;3141;49.234;9.326;2023-07-20T03:36:34;99511.09;;;19.46;64.23
6216;BME280;3141;49.234;9.326;2023-07-20T03:37:16;99503.91;;;19.40;64.37
6216;BME280;3141;49.234;9.326;2023-07-20T03:37:59;99509.03;;;19.41;64.73
6216;BME280;3141;49.234;9.326;2023-07-20T03:38:41;99509.47;;;19.38;64.75
6216;BME280;3141;49.234;9.326;2023-07-20T03:39:23;99513.25;;;19.31;65.08
6216;BME280;3141;49.234;9.326;2023-07-20T03:40:06;99513.25;;;19.31;65.33
6216;BME280;3141;49.234;9.326;2023-07-20T03:40:57;99512.38;;;19.37;64.56
6216;BME280;3141;49.234;9.326;2023-07-20T03:41:39;99513.59;;;19.41;64.52
6216;BME280;3141;49.234;9.326;2023-07-20T03:42:22;99518.09;;;19.47;64.38
6216;BME280;3141;49.234;9.326;2023-07-20T03:43:05;99508.84;;;19.43;64.38
6216;BME280;3141;49.234;9.326;2023-07-20T03:43:47;99514.78;;;19.45;64.49
6216;BME280;3141;49.234;9.326;2023-07-20T03:44:30;99515.00;;;19.43;64.68
6216;BME280;3141;49.234;9.326;2023-07-20T03:45:12;99520.75;;;19.47;64.69
6216;BME280;3141;49.234;9.326;2023-07-20T03:45:55;99518.31;;;19.45;64.88
6216;BME280;3141;49.234;9.326;2023-07-20T03:46:38;99514.22;;;19.43;64.41
6216;BME280;3141;49.234;9.326;2023-07-20T03:47:20;99512.34;;;19.43;64.29
6216;BME280;3141;49.234;9.326;2023-07-20T03:48:03;99519.75;;;19.41;64.66
6216;BME280;3141;49.234;9.326;2023-07-20T03:48:45;99523.50;;;19.40;64.65
6216;BME280;3141;49.234;9.326;2023-07-20T03:49:27;99523.72;;;19.39;64.60
6216;BME280;3141;49.234;9.326;2023-07-20T03:50:10;99518.78;;;19.36;64.89
6216;BME280;3141;49.234;9.326;2023-07-20T03:50:53;99522.06;;;19.38;64.83
6216;BME280;3141;49.234;9.326;2023-07-20T03:51:36;99528.91;;;19.34;65.03
6216;BME280;3141;49.234;9.326;2023-07-20T03:52:18;99528.47;;;19.37;64.67
6216;BME280;3141;49.234;9.326;2023-07-20T03:53:00;99523.72;;;19.39;64.41
6216;BME280;3141;49.234;9.326;2023-07-20T03:53:43;99529.50;;;19.36;64.80
6216;BME280;3141;49.234;9.326;2023-07-20T03:54:25;99523.50;;;19.40;64.43
6216;BME280;3141;49.234;9.326;2023-07-20T03:55:08;99532.38;;;19.41;64.05
6216;BME280;3141;49.234;9.326;2023-07-20T03:55:51;99527.81;;;19.41;63.85
6216;BME280;3141;49.234;9.326;2023-07-20T03:56:33;99528.63;;;19.42;63.81
6216;BME280;3141;49.234;9.326;2023-07-20T03:57:17;99527.22;;;19.39;64.28
6216;BME280;3141;49.234;9.326;2023-07-20T03:57:59;99528.63;;;19.42;63.91
6216;BME280;3141;49.234;9.326;2023-07-20T03:58:42;99522.66;;;19.40;64.51
6216;BME280;3141;49.234;9.326;2023-07-20T03:59:24;99527.63;;;19.36;63.81
6216;BME280;3141;49.234;9.326;2023-07-20T04:00:07;99534.25;;;19.34;63.35
6216;BME280;3141;49.234;9.326;2023-07-20T04:00:51;99528.28;;;19.32;64.17